Aviation Digital Data Service (ADDS)

Output produced by METARs form (0834 UTC 28 August 2016)
found at http://www.aviationweather.gov/adds/metars/
 
KBOS 280825Z 2808/2912 14004KT P6SM SCT060 BKN080 
     FM281700 12007KT P6SM FEW250 
     FM282300 16008KT P6SM SCT120 
     FM290300 20008KT P6SM SCT140 
     FM290500 20007KT P6SM BKN070 
     FM291100 24008KT P6SM BKN070